Time;durP1;ratioP1;P1;durP2;ratioP2;P2;SDS_P1;SDS_P2;PMS_P1;PMS_P2;Temp;Humidity;BMP_temperature;BMP_pressure;BME280_temperature;BME280_humidity;BME280_pressure;Samples;Min_cycle;Max_cycle;Signal;HPM_P1;HPM_P2
2023/07/27 00:01:28;;;;;;;9.23;4.78;;;14.00;99.90;;;;;;4965187;28;20046;-54
2023/07/27 00:03:54;;;;;;;8.98;5.47;;;14.00;99.90;;;;;;4962231;28;20050;-53
2023/07/27 00:06:20;;;;;;;8.90;5.03;;;14.00;99.90;;;;;;4967382;28;20057;-54
2023/07/27 00:08:46;;;;;;;8.43;5.32;;;13.90;99.90;;;;;;4965493;28;20050;-54
2023/07/27 00:11:12;;;;;;;11.07;5.70;;;13.90;99.90;;;;;;4966301;28;20051;-55
2023/07/27 00:13:38;;;;;;;10.02;5.65;;;13.90;99.90;;;;;;4968295;28;20031;-55
2023/07/27 00:16:03;;;;;;;11.05;5.47;;;13.90;99.90;;;;;;4971495;28;20254;-54
2023/07/27 00:18:29;;;;;;;8.93;5.80;;;13.90;99.90;;;;;;4964235;28;21083;-55
2023/07/27 00:20:55;;;;;;;8.55;5.72;;;13.90;99.90;;;;;;4966481;28;20038;-55
2023/07/27 00:23:20;;;;;;;12.57;6.10;;;13.80;99.90;;;;;;4964836;28;20133;-54
2023/07/27 00:25:46;;;;;;;10.68;5.95;;;13.80;99.90;;;;;;4968145;28;20043;-54
2023/07/27 00:28:12;;;;;;;12.05;5.75;;;13.90;99.90;;;;;;4968714;28;20038;-54
2023/07/27 00:30:37;;;;;;;9.43;5.65;;;13.90;99.90;;;;;;4954636;28;20054;-51
2023/07/27 00:33:03;;;;;;;9.45;5.90;;;13.90;99.90;;;;;;4969765;28;20508;-54
2023/07/27 00:35:29;;;;;;;11.98;6.00;;;13.90;99.90;;;;;;4968726;28;20415;-55
2023/07/27 00:37:55;;;;;;;9.48;6.13;;;13.80;99.90;;;;;;4963710;28;20045;-54
2023/07/27 00:40:21;;;;;;;10.30;6.07;;;13.80;99.90;;;;;;4967800;28;20688;-54
2023/07/27 00:42:46;;;;;;;12.18;6.45;;;13.80;99.90;;;;;;4963280;28;20099;-54
2023/07/27 00:45:12;;;;;;;9.75;6.00;;;13.80;99.90;;;;;;4967315;28;20046;-53
2023/07/27 00:47:38;;;;;;;9.60;5.93;;;13.80;99.90;;;;;;4964245;28;20046;-55
2023/07/27 00:50:04;;;;;;;13.50;6.32;;;13.80;99.90;;;;;;4966677;28;20050;-53
2023/07/27 00:52:31;;;;;;;10.38;6.20;;;13.80;99.90;;;;;;4965881;28;20049;-54
2023/07/27 00:54:58;;;;;;;9.75;5.93;;;13.80;99.90;;;;;;4970580;28;20043;-55
2023/07/27 00:57:24;;;;;;;9.73;5.55;;;13.80;99.90;;;;;;4954814;28;20772;-55
2023/07/27 00:59:51;;;;;;;11.18;6.30;;;13.80;99.90;;;;;;4971405;28;20047;-54
2023/07/27 01:02:17;;;;;;;13.65;6.00;;;13.80;99.90;;;;;;4936282;28;20038;-52
2023/07/27 01:04:43;;;;;;;8.63;6.00;;;13.80;99.90;;;;;;4955015;28;20049;-50
2023/07/27 01:07:09;;;;;;;8.13;5.57;;;13.80;99.90;;;;;;4968340;28;20421;-52
2023/07/27 01:09:35;;;;;;;10.43;6.22;;;13.70;99.90;;;;;;4969694;28;20050;-53
2023/07/27 01:12:18;;;;;;;9.23;5.78;;;13.80;99.90;;;;;;4973388;28;20046;-50
2023/07/27 01:14:49;;;;;;;10.68;6.03;;;13.70;99.90;;;;;;4971124;28;20100;-51
2023/07/27 01:17:37;;;;;;;10.68;5.93;;;13.80;99.90;;;;;;4963277;28;20073;-51
2023/07/27 01:20:10;;;;;;;10.63;5.80;;;13.70;99.90;;;;;;4950934;28;20489;-50
2023/07/27 01:23:00;;;;;;;8.38;5.57;;;13.70;99.90;;;;;;4967887;28;20055;-50
2023/07/27 01:25:47;;;;;;;10.95;6.20;;;13.70;99.90;;;;;;4972784;28;20910;-52
2023/07/27 01:28:21;;;;;;;9.73;6.05;;;13.70;99.90;;;;;;4968811;28;20133;-50
2023/07/27 01:30:54;;;;;;;9.82;5.63;;;13.70;99.90;;;;;;4968165;28;20116;-51
2023/07/27 01:33:31;;;;;;;10.25;5.68;;;13.60;99.90;;;;;;4968418;28;20103;-49
2023/07/27 01:36:19;;;;;;;12.55;6.97;;;13.60;99.90;;;;;;4967623;28;20635;-52
2023/07/27 01:38:47;;;;;;;12.05;6.03;;;13.60;99.90;;;;;;4967387;28;20828;-49
2023/07/27 01:41:15;;;;;;;8.68;5.75;;;13.60;99.90;;;;;;4966833;28;20039;-52
2023/07/27 01:43:42;;;;;;;10.15;5.80;;;13.60;99.90;;;;;;4969294;28;20055;-52
2023/07/27 01:46:09;;;;;;;10.05;6.32;;;13.60;99.90;;;;;;4952474;28;20051;-49
2023/07/27 01:48:41;;;;;;;7.60;5.43;;;13.60;99.90;;;;;;4967856;28;20038;-51
2023/07/27 01:51:09;;;;;;;11.73;6.00;;;13.60;99.90;;;;;;4963763;28;20042;-49
2023/07/27 01:53:36;;;;;;;9.35;5.80;;;13.60;99.90;;;;;;4968482;28;20046;-50
2023/07/27 01:56:04;;;;;;;10.68;5.93;;;13.50;99.90;;;;;;4969477;28;20070;-52
2023/07/27 01:58:31;;;;;;;8.32;5.90;;;13.50;99.90;;;;;;4967665;28;20046;-52
2023/07/27 02:00:58;;;;;;;8.10;5.80;;;13.50;99.90;;;;;;4968866;28;20089;-50
2023/07/27 02:03:25;;;;;;;9.77;5.85;;;13.50;99.90;;;;;;4968520;28;20050;-53
2023/07/27 02:05:51;;;;;;;7.90;5.63;;;13.50;99.90;;;;;;4967564;28;20089;-52
2023/07/27 02:08:16;;;;;;;8.88;5.53;;;13.50;99.90;;;;;;4967831;28;20042;-50
2023/07/27 02:10:44;;;;;;;8.35;5.97;;;13.50;99.90;;;;;;4965572;28;20038;-51
2023/07/27 02:13:23;;;;;;;9.48;5.78;;;13.50;99.90;;;;;;4935123;28;20389;-53
2023/07/27 02:16:02;;;;;;;9.10;5.72;;;13.50;99.90;;;;;;4972632;28;20046;-50
2023/07/27 02:18:30;;;;;;;11.90;5.82;;;13.50;99.90;;;;;;4967968;28;20428;-49
2023/07/27 02:20:56;;;;;;;8.73;5.75;;;13.50;99.90;;;;;;4969946;28;20077;-49
2023/07/27 02:23:23;;;;;;;8.80;5.80;;;13.60;99.90;;;;;;4970564;28;20133;-52
2023/07/27 02:25:49;;;;;;;10.65;5.57;;;13.50;99.90;;;;;;4974058;28;20054;-52
2023/07/27 02:28:14;;;;;;;10.52;5.80;;;13.60;99.90;;;;;;4973320;28;20500;-53
2023/07/27 02:30:40;;;;;;;9.90;5.55;;;13.60;99.90;;;;;;4959234;28;20052;-49
2023/07/27 02:33:06;;;;;;;8.70;5.55;;;13.60;99.90;;;;;;4973912;28;20034;-51
2023/07/27 02:35:32;;;;;;;8.77;5.95;;;13.60;99.90;;;;;;4971647;28;20186;-54
2023/07/27 02:37:58;;;;;;;11.10;6.00;;;13.60;99.90;;;;;;4968320;28;20125;-50
2023/07/27 02:40:23;;;;;;;8.52;5.93;;;13.60;99.90;;;;;;4948120;28;21032;-52
2023/07/27 02:42:49;;;;;;;9.40;5.53;;;13.60;99.90;;;;;;4971116;28;20042;-53
2023/07/27 02:45:15;;;;;;;7.53;5.20;;;13.60;99.90;;;;;;4968452;28;20404;-53
2023/07/27 02:47:41;;;;;;;8.63;5.55;;;13.60;99.90;;;;;;4971243;28;20484;-51
2023/07/27 02:50:07;;;;;;;10.50;5.32;;;13.60;99.90;;;;;;4971444;28;20039;-49
2023/07/27 02:52:33;;;;;;;9.73;6.00;;;13.70;99.90;;;;;;4972106;28;20042;-51
2023/07/27 02:54:58;;;;;;;7.00;5.50;;;13.70;99.90;;;;;;4976046;28;20438;-51
2023/07/27 02:57:24;;;;;;;10.45;5.95;;;13.70;99.90;;;;;;4971207;28;20074;-52
2023/07/27 02:59:50;;;;;;;10.07;5.53;;;13.70;99.90;;;;;;4974394;28;20088;-50
2023/07/27 03:02:17;;;;;;;9.50;4.70;;;13.70;99.90;;;;;;4972701;28;20057;-49
2023/07/27 03:04:43;;;;;;;12.00;6.00;;;13.70;99.90;;;;;;4973190;28;20049;-50
2023/07/27 03:07:08;;;;;;;10.73;5.65;;;13.70;99.90;;;;;;4973030;28;20046;-49
2023/07/27 03:09:34;;;;;;;8.40;5.55;;;13.70;99.90;;;;;;4956680;28;20507;-51
2023/07/27 03:12:00;;;;;;;9.82;5.50;;;13.70;99.90;;;;;;4975305;28;20046;-48
2023/07/27 03:14:26;;;;;;;9.05;5.68;;;13.70;99.90;;;;;;4972452;28;20042;-52
2023/07/27 03:16:52;;;;;;;8.23;5.78;;;13.80;99.90;;;;;;4928211;28;20043;-52
2023/07/27 03:19:17;;;;;;;8.10;5.70;;;13.70;99.90;;;;;;4952805;28;20444;-49
2023/07/27 03:21:43;;;;;;;8.65;5.75;;;13.80;99.90;;;;;;4965170;28;22635;-50
2023/07/27 03:24:09;;;;;;;10.75;5.68;;;13.80;99.90;;;;;;4948476;28;20063;-51
2023/07/27 03:26:36;;;;;;;10.52;5.53;;;13.80;99.90;;;;;;4968465;28;20054;-49
2023/07/27 03:29:02;;;;;;;8.93;6.30;;;13.80;99.90;;;;;;4968126;28;20046;-52
2023/07/27 03:31:28;;;;;;;9.90;5.88;;;13.80;99.90;;;;;;4969572;28;20093;-49
2023/07/27 03:33:54;;;;;;;8.57;5.60;;;13.90;99.90;;;;;;4966377;28;20625;-50
2023/07/27 03:36:21;;;;;;;8.82;5.78;;;13.90;99.90;;;;;;4937310;28;20074;-52
2023/07/27 03:38:47;;;;;;;9.13;5.53;;;13.90;99.90;;;;;;4947308;28;20058;-51
2023/07/27 03:41:13;;;;;;;9.25;5.57;;;13.90;99.90;;;;;;4965040;28;20054;-51
2023/07/27 03:43:39;;;;;;;10.27;6.15;;;13.90;99.90;;;;;;4967442;28;20050;-53
2023/07/27 03:46:05;;;;;;;8.48;6.10;;;13.90;99.90;;;;;;4968559;28;20062;-54
2023/07/27 03:48:31;;;;;;;9.02;6.43;;;14.00;99.90;;;;;;4963306;28;20057;-52
2023/07/27 03:51:01;;;;;;;8.93;5.90;;;14.00;99.90;;;;;;4963408;28;20037;-49
2023/07/27 03:53:30;;;;;;;7.55;6.00;;;14.00;99.90;;;;;;4966907;28;20050;-49
2023/07/27 03:55:55;;;;;;;10.18;6.28;;;14.00;99.90;;;;;;4966895;28;20045;-52
2023/07/27 03:58:21;;;;;;;14.70;6.57;;;14.00;99.90;;;;;;4963857;28;20039;-49
2023/07/27 04:00:47;;;;;;;8.27;5.80;;;14.00;99.90;;;;;;4965306;28;20690;-51
2023/07/27 04:03:13;;;;;;;12.85;6.32;;;14.00;99.90;;;;;;4951335;28;20050;-53
2023/07/27 04:05:39;;;;;;;10.18;6.07;;;14.00;99.90;;;;;;4962810;28;20058;-52
2023/07/27 04:08:04;;;;;;;9.00;5.85;;;14.00;99.90;;;;;;4965545;28;20045;-51
2023/07/27 04:10:30;;;;;;;12.13;6.50;;;14.00;99.90;;;;;;4947415;28;20093;-50
2023/07/27 04:12:57;;;;;;;8.38;6.07;;;14.00;99.90;;;;;;4963895;28;20045;-50
2023/07/27 04:15:23;;;;;;;10.35;6.68;;;14.00;99.90;;;;;;4962445;28;20506;-49
2023/07/27 04:17:49;;;;;;;10.18;6.35;;;14.00;99.90;;;;;;4955763;28;20038;-52
2023/07/27 04:20:15;;;;;;;9.90;6.68;;;14.00;99.90;;;;;;4964420;28;20512;-50
2023/07/27 04:22:40;;;;;;;7.82;5.93;;;14.00;99.90;;;;;;4954964;28;20113;-51
2023/07/27 04:25:07;;;;;;;9.93;6.60;;;14.00;99.90;;;;;;4944496;28;20085;-52
2023/07/27 04:27:32;;;;;;;10.48;6.20;;;14.00;99.90;;;;;;4960598;28;20054;-49
2023/07/27 04:29:58;;;;;;;10.68;6.22;;;14.00;99.90;;;;;;4966244;28;20047;-50
2023/07/27 04:32:24;;;;;;;12.55;6.78;;;14.00;99.90;;;;;;4964799;28;20093;-53
2023/07/27 04:34:49;;;;;;;10.60;6.97;;;14.00;99.90;;;;;;4965331;28;20046;-49
2023/07/27 04:37:15;;;;;;;10.48;6.50;;;14.00;99.90;;;;;;4948212;28;20129;-50
2023/07/27 04:39:41;;;;;;;8.70;6.53;;;14.00;99.90;;;;;;4961164;28;20046;-50
2023/07/27 04:42:07;;;;;;;9.85;6.97;;;14.00;99.90;;;;;;4946704;28;20401;-49
2023/07/27 04:44:33;;;;;;;12.27;6.90;;;14.00;99.90;;;;;;4964117;28;20771;-50
2023/07/27 04:46:59;;;;;;;10.43;6.78;;;14.00;99.90;;;;;;4964271;28;20047;-53
2023/07/27 04:49:25;;;;;;;9.93;6.47;;;14.00;99.90;;;;;;4970253;28;20051;-51
2023/07/27 04:51:50;;;;;;;10.27;6.80;;;14.00;99.90;;;;;;4969143;28;20043;-51
2023/07/27 04:54:16;;;;;;;13.07;7.50;;;14.00;99.90;;;;;;4953519;28;20137;-51
2023/07/27 04:56:42;;;;;;;11.02;7.00;;;14.00;99.90;;;;;;4951238;28;20157;-54
2023/07/27 04:59:08;;;;;;;11.02;7.20;;;14.00;99.90;;;;;;4967006;28;20527;-50
2023/07/27 05:01:33;;;;;;;12.93;8.18;;;14.10;99.90;;;;;;4970260;28;20620;-50
2023/07/27 05:03:59;;;;;;;12.90;7.90;;;14.00;99.90;;;;;;4966158;28;20042;-52
2023/07/27 05:06:25;;;;;;;13.93;8.30;;;14.10;99.90;;;;;;4965720;28;20046;-50
2023/07/27 05:08:50;;;;;;;15.30;7.90;;;14.00;99.90;;;;;;4963008;28;20077;-49
2023/07/27 05:11:16;;;;;;;14.38;8.65;;;14.10;99.90;;;;;;4965246;28;26466;-51
2023/07/27 05:13:42;;;;;;;13.27;8.32;;;14.10;99.90;;;;;;4963123;28;20046;-52
2023/07/27 05:16:07;;;;;;;13.70;8.30;;;14.10;99.90;;;;;;4961253;28;20075;-49
2023/07/27 05:18:33;;;;;;;13.65;8.43;;;14.10;99.90;;;;;;4963417;28;20101;-49
2023/07/27 05:20:59;;;;;;;14.25;9.00;;;14.10;99.90;;;;;;4966000;28;20457;-51
2023/07/27 05:23:26;;;;;;;13.98;8.43;;;14.10;99.90;;;;;;4966984;28;20193;-51
2023/07/27 05:25:52;;;;;;;12.95;8.35;;;14.20;99.90;;;;;;4966947;28;20062;-50
2023/07/27 05:28:17;;;;;;;13.18;8.43;;;14.20;99.90;;;;;;4965394;28;20385;-51
2023/07/27 05:30:43;;;;;;;13.23;7.78;;;14.20;99.90;;;;;;4967287;28;20161;-51
2023/07/27 05:33:09;;;;;;;12.30;8.27;;;14.30;99.90;;;;;;4963728;28;20046;-51
2023/07/27 05:35:35;;;;;;;14.23;7.97;;;14.30;99.90;;;;;;4970189;28;20420;-51
2023/07/27 05:38:00;;;;;;;12.50;7.97;;;14.30;99.90;;;;;;4968900;28;20047;-54
2023/07/27 05:40:26;;;;;;;12.93;8.00;;;14.30;99.90;;;;;;4961397;28;20060;-51
2023/07/27 05:42:52;;;;;;;16.75;8.43;;;14.30;99.90;;;;;;4969552;28;20053;-53
2023/07/27 05:45:17;;;;;;;12.75;8.57;;;14.30;99.90;;;;;;4957893;28;20034;-54
2023/07/27 05:47:43;;;;;;;13.23;8.68;;;14.30;99.90;;;;;;4977166;28;20046;-53
2023/07/27 05:50:09;;;;;;;12.15;8.00;;;14.30;99.90;;;;;;4958243;28;20421;-50
2023/07/27 05:52:35;;;;;;;12.93;8.27;;;14.30;99.90;;;;;;4979970;28;20046;-50
2023/07/27 05:55:01;;;;;;;12.27;7.18;;;14.20;99.90;;;;;;4973841;28;20477;-52
2023/07/27 05:57:28;;;;;;;12.45;7.70;;;14.30;99.90;;;;;;4954645;28;20046;-51
2023/07/27 05:59:54;;;;;;;11.75;7.70;;;14.20;99.90;;;;;;4975003;28;20042;-55
2023/07/27 06:02:19;;;;;;;12.52;7.18;;;14.30;99.90;;;;;;4977406;28;20061;-52
2023/07/27 06:04:45;;;;;;;12.70;7.20;;;14.30;99.90;;;;;;4977602;28;21263;-53
2023/07/27 06:07:11;;;;;;;9.52;6.55;;;14.30;99.90;;;;;;4975774;28;20122;-49
2023/07/27 06:09:37;;;;;;;10.18;6.82;;;14.30;99.90;;;;;;4977839;28;20499;-52
2023/07/27 06:12:11;;;;;;;8.57;6.50;;;14.30;99.90;;;;;;4968332;28;20042;-50
2023/07/27 06:14:40;;;;;;;13.52;7.30;;;14.30;99.90;;;;;;4953288;28;20076;-50
2023/07/27 06:17:06;;;;;;;10.57;6.80;;;14.30;99.90;;;;;;4964804;28;20041;-52
2023/07/27 06:19:32;;;;;;;9.15;6.00;;;14.30;99.90;;;;;;4954302;28;20050;-50
2023/07/27 06:21:58;;;;;;;10.27;6.20;;;14.40;99.90;;;;;;4971289;28;20476;-49
2023/07/27 06:24:24;;;;;;;10.30;6.50;;;14.40;99.90;;;;;;4970045;28;20065;-50
2023/07/27 06:26:49;;;;;;;11.70;6.57;;;14.50;99.90;;;;;;4969883;28;20061;-49
2023/07/27 06:29:16;;;;;;;8.85;6.32;;;14.50;99.90;;;;;;4972252;28;20138;-51
2023/07/27 06:31:41;;;;;;;9.20;6.28;;;14.60;99.90;;;;;;4957851;28;20035;-49
2023/07/27 06:34:07;;;;;;;11.27;6.53;;;14.70;99.90;;;;;;4968726;28;20046;-50
2023/07/27 06:36:33;;;;;;;7.93;5.93;;;14.80;99.90;;;;;;4969601;28;20089;-52
2023/07/27 06:38:59;;;;;;;8.60;5.90;;;14.90;99.90;;;;;;4969797;28;20043;-50
2023/07/27 06:41:25;;;;;;;8.98;5.90;;;14.90;99.90;;;;;;4965832;28;20573;-50
2023/07/27 06:43:54;;;;;;;10.00;5.70;;;15.00;99.90;;;;;;4974255;28;20495;-48
2023/07/27 06:46:20;;;;;;;7.72;5.68;;;15.10;99.90;;;;;;4954222;28;20493;-50
2023/07/27 06:48:47;;;;;;;9.18;6.18;;;15.20;99.90;;;;;;4986373;28;20062;-51
2023/07/27 06:51:13;;;;;;;9.55;5.38;;;15.30;99.90;;;;;;4966256;28;20180;-50
2023/07/27 06:53:39;;;;;;;7.93;5.70;;;15.40;99.90;;;;;;4969354;28;20074;-52
2023/07/27 06:56:05;;;;;;;7.88;5.53;;;15.40;99.90;;;;;;4967562;28;20734;-51
2023/07/27 06:58:32;;;;;;;9.88;5.65;;;15.50;99.90;;;;;;4969347;28;20034;-49
2023/07/27 07:00:58;;;;;;;7.53;5.57;;;15.50;99.90;;;;;;4959108;28;20186;-49
2023/07/27 07:03:24;;;;;;;7.70;5.13;;;15.60;99.90;;;;;;4967245;28;20116;-50
2023/07/27 07:05:53;;;;;;;8.80;5.65;;;15.60;99.90;;;;;;4965249;28;20512;-51
2023/07/27 07:08:19;;;;;;;7.55;5.22;;;15.60;99.90;;;;;;4967270;28;20081;-51
2023/07/27 07:10:45;;;;;;;8.00;5.53;;;15.70;99.90;;;;;;4967755;28;20057;-52
2023/07/27 07:13:11;;;;;;;7.82;5.10;;;15.70;99.90;;;;;;4966003;28;20046;-52
2023/07/27 07:15:37;;;;;;;7.40;4.90;;;15.70;99.90;;;;;;4963543;28;20041;-48
2023/07/27 07:18:02;;;;;;;9.35;5.38;;;15.70;99.90;;;;;;4957238;28;20433;-51
2023/07/27 07:20:28;;;;;;;7.95;5.18;;;15.70;99.90;;;;;;4965083;28;20039;-50
2023/07/27 07:22:54;;;;;;;5.82;4.80;;;15.80;99.90;;;;;;4970575;28;20050;-49
2023/07/27 07:25:20;;;;;;;9.23;4.90;;;15.80;99.90;;;;;;4957178;28;20595;-50
2023/07/27 07:27:46;;;;;;;7.90;5.25;;;15.90;99.90;;;;;;4965265;28;20039;-49
2023/07/27 07:30:12;;;;;;;6.00;4.70;;;15.90;99.90;;;;;;4965210;28;20432;-49
2023/07/27 07:32:37;;;;;;;6.82;4.93;;;15.90;99.90;;;;;;4965839;28;20145;-50
2023/07/27 07:35:04;;;;;;;8.32;4.90;;;15.90;99.90;;;;;;4969257;28;20042;-49
2023/07/27 07:37:29;;;;;;;8.63;4.80;;;16.00;99.90;;;;;;4965914;28;20061;-50
2023/07/27 07:39:55;;;;;;;8.80;4.50;;;16.00;99.90;;;;;;4963932;28;20042;-50
2023/07/27 07:42:21;;;;;;;5.90;4.82;;;16.10;99.90;;;;;;4948626;28;20053;-51
2023/07/27 07:44:47;;;;;;;5.05;3.92;;;16.10;99.90;;;;;;4980622;28;20793;-51
2023/07/27 07:47:13;;;;;;;5.75;4.00;;;16.10;99.90;;;;;;4947884;28;20050;-49
2023/07/27 07:49:39;;;;;;;5.00;4.20;;;16.10;99.90;;;;;;4951669;28;20045;-49
2023/07/27 07:52:05;;;;;;;5.57;4.47;;;16.10;99.90;;;;;;4937554;28;20543;-49
2023/07/27 07:54:31;;;;;;;4.85;4.35;;;16.20;99.90;;;;;;4968376;28;20663;-50
2023/07/27 07:56:57;;;;;;;6.68;4.47;;;16.20;99.90;;;;;;4966374;28;20034;-51
2023/07/27 07:59:23;;;;;;;4.55;3.80;;;16.20;99.90;;;;;;4951004;28;20053;-50
2023/07/27 08:01:49;;;;;;;7.10;4.63;;;16.30;99.90;;;;;;4969081;28;21867;-48
2023/07/27 08:04:15;;;;;;;7.47;4.13;;;16.30;99.90;;;;;;4966539;28;20046;-49
2023/07/27 08:06:41;;;;;;;4.75;3.78;;;16.40;99.90;;;;;;4963252;28;20050;-51
2023/07/27 08:09:08;;;;;;;5.63;4.25;;;16.40;99.90;;;;;;4965954;28;20042;-50
2023/07/27 08:11:34;;;;;;;4.15;3.47;;;16.50;99.90;;;;;;4968134;28;20055;-51
2023/07/27 08:14:02;;;;;;;4.70;3.25;;;16.60;99.90;;;;;;4949379;28;20049;-50
2023/07/27 08:16:29;;;;;;;6.20;3.78;;;16.60;99.90;;;;;;4965841;28;20706;-49
2023/07/27 08:18:55;;;;;;;4.32;3.22;;;16.70;99.90;;;;;;4960970;28;20157;-51
2023/07/27 08:21:21;;;;;;;4.88;3.47;;;16.70;99.90;;;;;;4965504;28;20408;-49
2023/07/27 08:23:47;;;;;;;3.75;3.10;;;16.70;99.90;;;;;;4966584;28;20050;-49
2023/07/27 08:26:14;;;;;;;4.43;2.97;;;16.70;99.90;;;;;;4943020;28;20113;-50
2023/07/27 08:28:41;;;;;;;3.20;2.90;;;16.70;99.90;;;;;;4965626;28;20055;-51
2023/07/27 08:31:07;;;;;;;2.53;2.33;;;16.70;99.90;;;;;;4956605;28;20113;-51
2023/07/27 08:33:33;;;;;;;4.18;3.08;;;16.70;99.90;;;;;;4965375;28;20050;-49
2023/07/27 08:36:02;;;;;;;3.60;3.10;;;16.70;99.90;;;;;;4965639;28;20050;-49
2023/07/27 08:38:28;;;;;;;3.92;3.00;;;16.70;99.90;;;;;;4953484;28;20384;-49
2023/07/27 08:40:55;;;;;;;3.08;2.60;;;16.80;99.90;;;;;;4967641;28;20053;-49
2023/07/27 08:43:22;;;;;;;3.20;2.72;;;16.80;99.90;;;;;;4966360;28;20086;-50
2023/07/27 08:45:48;;;;;;;2.55;2.35;;;16.70;99.90;;;;;;4965339;28;20526;-52
2023/07/27 08:48:15;;;;;;;2.83;2.50;;;16.90;99.90;;;;;;4964697;28;20525;-52
2023/07/27 08:50:42;;;;;;;2.67;2.40;;;16.90;99.90;;;;;;4967384;28;20034;-49
2023/07/27 08:53:08;;;;;;;4.00;2.20;;;16.90;99.90;;;;;;4952958;28;20046;-52
2023/07/27 08:55:34;;;;;;;4.53;2.22;;;16.90;99.90;;;;;;4963256;28;20041;-50
2023/07/27 08:58:00;;;;;;;2.88;2.53;;;16.90;99.90;;;;;;4964890;28;20051;-51
2023/07/27 09:00:26;;;;;;;3.05;2.33;;;17.00;99.90;;;;;;4963672;28;20602;-50
2023/07/27 09:02:51;;;;;;;3.03;2.15;;;17.10;99.90;;;;;;4966832;28;20046;-49
2023/07/27 09:05:17;;;;;;;2.60;2.05;;;17.10;99.90;;;;;;4968494;28;20042;-49
2023/07/27 09:07:49;;;;;;;3.00;2.28;;;17.10;99.90;;;;;;4963914;28;20046;-50
2023/07/27 09:10:15;;;;;;;3.00;2.40;;;17.20;99.90;;;;;;4964141;28;20080;-50
2023/07/27 09:12:42;;;;;;;2.60;1.90;;;17.20;99.90;;;;;;4948529;28;20460;-51
2023/07/27 09:15:15;;;;;;;2.08;1.90;;;17.30;99.90;;;;;;4966977;28;20493;-49
2023/07/27 09:17:41;;;;;;;4.07;2.10;;;17.40;99.90;;;;;;4946531;28;20050;-50
2023/07/27 09:20:11;;;;;;;2.55;2.00;;;17.50;99.90;;;;;;4966259;28;20058;-49
2023/07/27 09:22:37;;;;;;;2.10;1.90;;;17.60;99.90;;;;;;4964817;28;20492;-48
2023/07/27 09:25:07;;;;;;;2.55;2.28;;;17.70;99.90;;;;;;4965113;28;20061;-49
2023/07/27 09:27:43;;;;;;;2.75;1.90;;;17.70;99.90;;;;;;4965933;28;20645;-52
2023/07/27 09:30:10;;;;;;;1.50;1.40;;;17.70;99.90;;;;;;4947938;28;20057;-50
2023/07/27 09:32:36;;;;;;;1.60;1.50;;;17.70;99.90;;;;;;4964035;28;20539;-49
2023/07/27 09:35:03;;;;;;;2.97;1.83;;;17.70;99.90;;;;;;4953676;28;20617;-49
2023/07/27 09:37:29;;;;;;;1.75;1.65;;;17.70;99.90;;;;;;4939294;28;20161;-49
2023/07/27 09:40:15;;;;;;;2.03;1.80;;;17.70;99.90;;;;;;4961824;28;20590;-50
2023/07/27 09:42:42;;;;;;;1.80;1.50;;;17.70;99.90;;;;;;4966048;28;20577;-48
2023/07/27 09:45:09;;;;;;;1.60;1.50;;;17.70;99.90;;;;;;4967101;28;20054;-50
2023/07/27 09:47:35;;;;;;;1.77;1.67;;;17.80;99.90;;;;;;4967124;28;20054;-49
2023/07/27 09:50:01;;;;;;;2.25;1.60;;;17.70;99.90;;;;;;4949197;28;20101;-49
2023/07/27 09:52:30;;;;;;;1.65;1.55;;;17.70;99.90;;;;;;4965842;28;20519;-49
2023/07/27 09:54:58;;;;;;;1.73;1.63;;;17.70;99.90;;;;;;4962535;28;20182;-50
2023/07/27 09:57:25;;;;;;;2.20;1.73;;;17.80;99.90;;;;;;4964572;28;20042;-53
2023/07/27 09:59:51;;;;;;;2.83;1.73;;;17.80;99.90;;;;;;4966944;28;20548;-49
2023/07/27 10:02:17;;;;;;;3.22;1.98;;;17.80;99.90;;;;;;4953006;28;20046;-49
2023/07/27 10:04:49;;;;;;;1.90;1.80;;;17.70;99.90;;;;;;4963917;28;20042;-51
2023/07/27 10:07:18;;;;;;;1.95;1.83;;;17.70;99.90;;;;;;4964453;28;20615;-50
2023/07/27 10:09:43;;;;;;;1.90;1.80;;;17.80;99.90;;;;;;4962818;28;20050;-48
2023/07/27 10:12:09;;;;;;;2.08;1.88;;;17.80;99.90;;;;;;4951977;28;20527;-49
2023/07/27 10:14:35;;;;;;;2.47;1.70;;;17.80;99.90;;;;;;4963990;28;20050;-52
2023/07/27 10:17:04;;;;;;;2.95;1.50;;;17.90;99.90;;;;;;4964303;28;20065;-49
2023/07/27 10:19:42;;;;;;;1.70;1.52;;;17.90;99.90;;;;;;4963396;28;20871;-49
2023/07/27 10:22:15;;;;;;;2.20;1.52;;;18.00;99.90;;;;;;4961755;28;20819;-49
2023/07/27 10:25:00;;;;;;;1.65;1.55;;;18.10;99.90;;;;;;4963796;28;20062;-50
2023/07/27 10:27:26;;;;;;;1.58;1.35;;;18.20;99.90;;;;;;4966160;28;20054;-49
2023/07/27 10:29:54;;;;;;;1.40;1.30;;;18.20;99.90;;;;;;4956483;28;20053;-49
2023/07/27 10:32:20;;;;;;;1.40;1.30;;;18.20;99.90;;;;;;4951063;28;22308;-49
2023/07/27 10:34:50;;;;;;;1.60;1.50;;;18.20;99.90;;;;;;4970106;28;20039;-48
2023/07/27 10:37:16;;;;;;;1.40;1.30;;;18.20;99.90;;;;;;4964024;28;20077;-49
2023/07/27 10:39:51;;;;;;;1.50;1.40;;;18.30;99.90;;;;;;4957777;28;20096;-49
2023/07/27 10:42:18;;;;;;;1.40;1.30;;;18.40;99.90;;;;;;4960060;28;20043;-49
2023/07/27 10:44:45;;;;;;;1.30;1.20;;;18.40;99.90;;;;;;4969803;28;20042;-50
2023/07/27 10:47:21;;;;;;;1.45;1.35;;;18.40;99.90;;;;;;4972012;28;20045;-50
2023/07/27 10:49:49;;;;;;;1.27;1.10;;;18.40;99.90;;;;;;4967982;28;20040;-51
2023/07/27 10:52:20;;;;;;;1.40;1.30;;;18.40;99.90;;;;;;4968137;28;20594;-51
2023/07/27 10:54:48;;;;;;;1.97;1.20;;;18.40;99.90;;;;;;4965428;28;20544;-51
2023/07/27 10:57:16;;;;;;;1.90;1.40;;;18.40;99.90;;;;;;4954114;28;20173;-50
2023/07/27 10:59:43;;;;;;;1.50;1.23;;;18.30;99.90;;;;;;4956216;28;20520;-51
2023/07/27 11:02:11;;;;;;;1.65;1.52;;;18.30;99.90;;;;;;4948058;28;20046;-48
2023/07/27 11:04:39;;;;;;;1.42;1.33;;;18.20;99.90;;;;;;4968072;28;20042;-49
2023/07/27 11:07:05;;;;;;;1.40;1.30;;;18.20;99.90;;;;;;4968458;28;20073;-52
2023/07/27 11:09:31;;;;;;;1.63;1.52;;;18.10;99.90;;;;;;4967545;28;20046;-51
2023/07/27 11:12:01;;;;;;;1.40;1.30;;;18.10;99.90;;;;;;4972423;28;20093;-49
2023/07/27 11:14:27;;;;;;;1.70;1.60;;;18.10;99.90;;;;;;4967965;28;20053;-50
2023/07/27 11:16:53;;;;;;;1.60;1.50;;;18.00;99.90;;;;;;4968116;28;20049;-50
2023/07/27 11:19:19;;;;;;;1.50;1.40;;;18.00;99.90;;;;;;4963961;28;20057;-50
2023/07/27 11:21:45;;;;;;;1.63;1.52;;;18.00;99.90;;;;;;4966643;28;20496;-49
2023/07/27 11:24:13;;;;;;;1.55;1.45;;;17.90;99.90;;;;;;4969524;28;20472;-49
2023/07/27 11:26:40;;;;;;;1.92;1.58;;;17.90;99.90;;;;;;4969164;28;20050;-48
2023/07/27 11:29:06;;;;;;;1.88;1.45;;;17.90;99.90;;;;;;4969098;28;20073;-50
2023/07/27 11:31:32;;;;;;;1.90;1.60;;;17.90;99.90;;;;;;4968757;28;20121;-52
2023/07/27 11:34:00;;;;;;;2.65;2.03;;;17.90;99.90;;;;;;4965064;28;20458;-51
2023/07/27 11:36:34;;;;;;;2.00;1.90;;;17.90;99.90;;;;;;4967039;28;20101;-51
2023/07/27 11:39:01;;;;;;;1.70;1.60;;;18.00;99.90;;;;;;4966959;28;20042;-51
2023/07/27 11:41:30;;;;;;;1.80;1.70;;;18.00;99.90;;;;;;4969419;28;20042;-49
2023/07/27 11:43:57;;;;;;;2.03;1.92;;;18.10;99.90;;;;;;4958181;28;20380;-50
2023/07/27 11:46:27;;;;;;;2.40;2.20;;;18.10;99.90;;;;;;4945559;28;20035;-51
2023/07/27 11:48:56;;;;;;;2.00;1.80;;;18.20;99.90;;;;;;4966866;28;21416;-52
2023/07/27 11:51:23;;;;;;;2.42;1.90;;;18.20;99.90;;;;;;4953467;28;20100;-51
2023/07/27 11:53:48;;;;;;;2.05;1.92;;;18.20;99.90;;;;;;4948905;28;20054;-51
2023/07/27 11:56:14;;;;;;;4.63;2.38;;;18.20;99.90;;;;;;4954862;28;20416;-49
2023/07/27 11:58:42;;;;;;;2.35;2.10;;;18.20;99.90;;;;;;4967710;28;20152;-50
2023/07/27 12:01:09;;;;;;;3.78;2.50;;;18.20;99.90;;;;;;4967581;28;20074;-49
2023/07/27 12:03:38;;;;;;;2.33;2.13;;;18.20;99.90;;;;;;4966318;28;20684;-51
2023/07/27 12:06:04;;;;;;;2.65;2.13;;;18.20;99.90;;;;;;4966474;28;20042;-54
2023/07/27 12:08:30;;;;;;;2.45;2.13;;;18.20;99.90;;;;;;4949240;28;20060;-53
2023/07/27 12:10:59;;;;;;;1.80;1.70;;;18.20;99.90;;;;;;4965329;28;20460;-52
2023/07/27 12:13:26;;;;;;;2.05;1.90;;;18.20;99.90;;;;;;4966477;28;20053;-50
2023/07/27 12:16:03;;;;;;;2.60;2.30;;;18.20;99.90;;;;;;4966823;28;20593;-52
2023/07/27 12:18:30;;;;;;;2.40;2.20;;;18.30;99.90;;;;;;4952465;28;20108;-50
2023/07/27 12:20:58;;;;;;;2.03;1.92;;;18.40;99.90;;;;;;4951814;28;20137;-53
2023/07/27 12:23:28;;;;;;;2.42;2.22;;;18.50;99.90;;;;;;4966683;28;20194;-50
2023/07/27 12:25:55;;;;;;;2.08;1.77;;;18.50;99.90;;;;;;4965510;28;20051;-52
2023/07/27 12:28:20;;;;;;;2.30;2.10;;;18.60;99.90;;;;;;4966032;28;20084;-50
2023/07/27 12:30:46;;;;;;;2.58;2.25;;;18.70;99.90;;;;;;4965864;28;20593;-49
2023/07/27 12:33:12;;;;;;;1.98;1.77;;;18.80;99.90;;;;;;4950929;28;20039;-50
2023/07/27 12:35:39;;;;;;;2.15;2.00;;;18.90;99.90;;;;;;4965538;28;20046;-51
2023/07/27 12:38:05;;;;;;;3.88;2.22;;;19.00;99.90;;;;;;4946526;28;20509;-50
2023/07/27 12:40:31;;;;;;;2.00;1.88;;;19.10;99.90;;;;;;4964708;28;20423;-52
2023/07/27 12:42:58;;;;;;;1.88;1.70;;;19.20;99.90;;;;;;4946463;28;20137;-52